Bohemia, Louisiana
Current Conditions -  °F | °C
As of 2:55 AM on Thursday 18 Dec 2014 (Local Time) from KNBG Reporting Station
Clear Clear  
Wind Chill: 50°   Ceiling: Unl
Heat Index: 50°   Visibility: 10mi
Dew Point: 45°   Wind: 3mph
Humidity: 83%   Direction: 30°NNE
Pressure: 30.17"   Gusts: NA
Location:  29.5781°N, 89.7956°W
Report Text: KNBG 180855Z AUTO 03003KT 10SM CLR 10/07 A3017 RMK AO2 SLP214 T01000072 55000 $
Loading
Personal Weather Stations






























Interactive Weather Map New forecast layout! Learn more

10-Day Weather Forecast

Advertisements
Track Severe Weather on mobile